createdAt,value
2022-08-17T00:16:50.555Z,123
2022-08-17T00:36:34.076Z,124
2022-08-17T00:56:34.068Z,124
2022-08-17T01:16:34.062Z,125
2022-08-17T01:36:34.052Z,124
2022-08-17T01:56:34.058Z,124
2022-08-17T02:16:36.745Z,124
2022-08-17T02:36:34.100Z,124
2022-08-17T02:56:34.055Z,123
2022-08-17T03:16:34.009Z,124
2022-08-17T03:36:35.871Z,124
2022-08-17T03:56:33.999Z,127
2022-08-17T04:16:34.004Z,125
2022-08-17T04:36:33.993Z,127
2022-08-17T04:56:34.206Z,129
2022-08-17T05:36:37.793Z,130
2022-08-17T05:56:34.068Z,133
2022-08-17T06:16:34.720Z,135
2022-08-17T06:36:33.963Z,134
2022-08-17T06:56:52.628Z,134
2022-08-17T07:16:33.942Z,138
2022-08-17T07:36:33.958Z,139
2022-08-17T07:56:34.742Z,134
2022-08-17T08:16:33.422Z,132
2022-08-17T08:36:57.227Z,129
2022-08-17T08:56:33.894Z,125
2022-08-17T09:16:33.876Z,124
2022-08-17T09:36:33.895Z,125
2022-08-17T09:56:33.656Z,119
2022-08-17T10:16:33.877Z,121
2022-08-17T10:36:33.849Z,124
2022-08-17T10:56:33.344Z,124
2022-08-17T11:16:33.821Z,126
2022-08-17T11:36:33.808Z,124
2022-08-17T11:56:33.816Z,125
2022-08-17T12:16:33.803Z,123
2022-08-17T12:36:33.776Z,121
2022-08-17T13:16:33.755Z,118
2022-08-17T13:36:33.810Z,106
2022-08-17T13:56:38.155Z,93
2022-08-17T14:16:33.724Z,91
2022-08-17T14:36:33.704Z,92
2022-08-17T14:56:37.832Z,97
2022-08-17T15:36:33.681Z,83
2022-08-17T15:56:33.676Z,86
2022-08-17T16:16:33.693Z,92
2022-08-17T16:36:33.648Z,102
2022-08-17T16:56:33.649Z,106
2022-08-17T17:16:33.643Z,109
2022-08-17T17:36:33.622Z,112
2022-08-17T17:56:39.238Z,115
2022-08-17T18:16:33.605Z,117
2022-08-17T18:36:33.624Z,117
2022-08-17T18:56:33.585Z,115
2022-08-17T19:16:33.572Z,115
2022-08-17T19:36:33.564Z,117
2022-08-17T19:56:33.067Z,116
2022-08-17T20:16:33.547Z,118
2022-08-17T20:36:33.542Z,120
2022-08-17T20:56:33.536Z,118
2022-08-17T21:16:33.513Z,120
2022-08-17T21:36:33.519Z,121
2022-08-17T21:56:33.501Z,119
2022-08-17T22:16:33.502Z,120
2022-08-17T22:36:33.504Z,120
2022-08-17T22:56:33.491Z,122
2022-08-17T23:16:33.490Z,121
2022-08-17T23:36:33.473Z,121
2022-08-17T23:56:33.475Z,124
